Aviation WX

[Source: ADDS]
METAR
KFKL 230401Z AUTO 04003KT 3SM BR SCT001 11/10 A3023 RMK AO2 =
KFKL 230359Z 2304/2324 02005KT 2SM BR BKN003 TEMPO 2304/2306 6SM SCT003 FM231000 06003KT 1SM BR SCT025 FM231200 06003KT 3SM BR BKN020 FM231400 07004KT P6SM SCT040 BKN120
TAF
KFKL 230359Z 2304/2324 02005KT 2SM BR BKN003 TEMPO 2304/2306 6SM SCT003 FM231000 06003KT 1SM BR SCT025 FM231200 06003KT 3SM BR BKN020 FM231400 07004KT P6SM SCT040 BKN120 =

Clarion Airport T-Shirts

small